createdAt,value
2017-01-03T00:00:03.896Z,1.07
2017-01-03T00:01:03.928Z,1.03
2017-01-03T00:02:03.982Z,1.04
2017-01-03T00:03:03.910Z,1.1
2017-01-03T00:04:03.850Z,1.07
2017-01-03T00:05:03.986Z,1.22
2017-01-03T00:06:03.930Z,1.11
2017-01-03T00:07:03.968Z,1.17
2017-01-03T00:08:03.909Z,1.17
2017-01-03T00:09:03.931Z,1.26
2017-01-03T00:10:03.988Z,1.17
2017-01-03T00:11:03.924Z,1.15
2017-01-03T00:12:03.941Z,1.04
2017-01-03T00:13:03.934Z,1.11
2017-01-03T00:14:03.947Z,1.14
2017-01-03T00:15:04.008Z,1.18
2017-01-03T00:16:03.986Z,1.11
2017-01-03T00:17:03.890Z,1.1
2017-01-03T00:18:03.915Z,1.14
2017-01-03T00:19:04.009Z,1.08
2017-01-03T00:20:04.012Z,1.03
2017-01-03T00:21:04.006Z,1
2017-01-03T00:22:04.005Z,1.07
2017-01-03T00:23:03.977Z,0.96
2017-01-03T00:24:04.019Z,1.08
2017-01-03T00:25:04.021Z,1.02
2017-01-03T00:26:03.928Z,0.89
2017-01-03T00:27:03.981Z,0.99
2017-01-03T00:28:03.920Z,0.96
2017-01-03T00:29:03.999Z,0.99
2017-01-03T00:30:03.914Z,0.93
2017-01-03T00:31:03.989Z,0.86
2017-01-03T00:32:03.993Z,0.94
2017-01-03T00:33:04.052Z,0.97
2017-01-03T00:34:04.144Z,1
2017-01-03T00:35:03.928Z,0.99
2017-01-03T00:36:04.048Z,0.94
2017-01-03T00:37:04.065Z,0.9
2017-01-03T00:38:04.063Z,1.04
2017-01-03T00:39:04.071Z,0.86
2017-01-03T00:40:04.000Z,0.81
2017-01-03T00:41:04.035Z,0.81
2017-01-03T00:42:04.004Z,1
2017-01-03T00:43:04.085Z,1.02
2017-01-03T00:44:04.067Z,0.89
2017-01-03T00:45:04.030Z,0.89
2017-01-03T00:46:04.092Z,0.93
2017-01-03T00:47:04.093Z,0.89
2017-01-03T00:48:04.111Z,0.92
2017-01-03T00:49:04.026Z,0.94
2017-01-03T00:50:04.089Z,0.89
2017-01-03T00:51:04.044Z,0.86
2017-01-03T00:52:04.006Z,0.84
2017-01-03T00:53:04.106Z,0.85
2017-01-03T00:54:04.044Z,0.86
2017-01-03T00:55:04.197Z,0.85
2017-01-03T00:56:04.061Z,0.86
2017-01-03T00:57:04.002Z,0.85
2017-01-03T00:58:04.140Z,0.82
2017-01-03T00:59:04.129Z,0.75
2017-01-03T01:00:04.145Z,0.79
2017-01-03T01:01:04.120Z,0.78
2017-01-03T01:02:04.127Z,0.75
2017-01-03T01:03:04.068Z,0.81
2017-01-03T01:04:04.009Z,0.79
2017-01-03T01:05:04.125Z,0.71
2017-01-03T01:06:04.153Z,0.71
2017-01-03T01:07:04.178Z,0.75
2017-01-03T01:08:04.126Z,0.67
2017-01-03T01:09:04.147Z,0.66
2017-01-03T01:10:04.141Z,0.67
2017-01-03T01:11:04.140Z,0.74
2017-01-03T01:12:04.168Z,0.72
2017-01-03T01:13:04.034Z,0.74
2017-01-03T01:14:04.109Z,0.61
2017-01-03T01:15:04.042Z,0.67
2017-01-03T01:16:04.116Z,0.67
2017-01-03T01:17:04.109Z,0.63
2017-01-03T01:18:04.133Z,0.58
2017-01-03T01:19:04.104Z,0.71
2017-01-03T01:20:04.069Z,0.61
2017-01-03T01:21:04.065Z,0.69
2017-01-03T01:22:04.105Z,0.66
2017-01-03T01:23:04.163Z,0.61
2017-01-03T01:24:04.143Z,0.63
2017-01-03T01:25:04.133Z,0.72
2017-01-03T01:26:04.073Z,0.67
2017-01-03T01:27:04.345Z,0.69
2017-01-03T01:28:04.190Z,0.69
2017-01-03T01:29:04.270Z,0.64
2017-01-03T01:30:04.154Z,0.63
2017-01-03T01:31:04.225Z,0.69
2017-01-03T01:32:04.113Z,0.64
2017-01-03T01:33:04.157Z,0.76
2017-01-03T01:34:04.155Z,0.76
2017-01-03T01:35:04.150Z,0.78
2017-01-03T01:36:04.232Z,0.69
2017-01-03T01:37:04.181Z,0.86
2017-01-03T01:38:04.227Z,0.66
2017-01-03T01:39:04.171Z,0.72
2017-01-03T01:40:04.303Z,0.78
2017-01-03T01:41:04.183Z,0.74
2017-01-03T01:42:04.226Z,0.79
2017-01-03T01:43:04.244Z,0.72
2017-01-03T01:44:04.178Z,0.78
2017-01-03T01:45:04.169Z,0.79
2017-01-03T01:46:04.257Z,0.79
2017-01-03T01:47:04.258Z,0.69
2017-01-03T01:48:04.159Z,0.75
2017-01-03T01:49:04.206Z,0.82
2017-01-03T01:50:04.253Z,0.82
2017-01-03T01:51:04.230Z,0.64
2017-01-03T01:52:04.245Z,0.72
2017-01-03T01:53:04.148Z,0.82
2017-01-03T01:54:04.211Z,0.63
2017-01-03T01:55:04.263Z,0.72
2017-01-03T01:56:04.226Z,0.67
2017-01-03T01:57:04.217Z,0.81
2017-01-03T01:58:04.273Z,0.75
2017-01-03T01:59:04.366Z,0.75
2017-01-03T02:00:04.270Z,0.78
2017-01-03T02:01:04.304Z,0.69
2017-01-03T02:02:04.288Z,0.72
2017-01-03T02:03:04.228Z,0.67
2017-01-03T02:04:04.188Z,0.63
2017-01-03T02:05:04.207Z,0.82
2017-01-03T02:06:04.188Z,0.66
2017-01-03T02:07:04.200Z,0.67
2017-01-03T02:08:04.244Z,0.72
2017-01-03T02:09:04.252Z,0.67
2017-01-03T02:10:04.255Z,0.78
2017-01-03T02:11:04.242Z,0.78
2017-01-03T02:12:04.266Z,0.69
2017-01-03T02:13:04.270Z,0.71
2017-01-03T02:14:04.557Z,0.75
2017-01-03T02:15:04.466Z,0.74
2017-01-03T02:16:04.214Z,0.76
2017-01-03T02:17:04.281Z,0.76
2017-01-03T02:18:04.278Z,0.81
2017-01-03T02:19:04.388Z,0.76
2017-01-03T02:20:04.305Z,0.67
2017-01-03T02:21:04.317Z,0.71
2017-01-03T02:22:04.283Z,0.82
2017-01-03T02:23:04.341Z,0.76
2017-01-03T02:24:04.355Z,0.75
2017-01-03T02:25:04.325Z,0.76
2017-01-03T02:26:04.298Z,0.82
2017-01-03T02:27:04.311Z,0.78
2017-01-03T02:28:04.253Z,0.63
2017-01-03T02:29:04.306Z,0.81
2017-01-03T02:30:04.312Z,0.71
2017-01-03T02:31:04.564Z,0.72
2017-01-03T02:32:04.392Z,0.72
2017-01-03T02:33:04.266Z,0.71
2017-01-03T02:34:04.245Z,0.71
2017-01-03T02:35:04.403Z,0.75
2017-01-03T02:36:04.335Z,0.74
2017-01-03T02:37:04.542Z,0.69
2017-01-03T02:38:04.383Z,0.72
2017-01-03T02:39:05.044Z,0.75
2017-01-03T02:40:04.338Z,0.69
2017-01-03T02:41:04.333Z,0.75
2017-01-03T02:42:04.368Z,0.78
2017-01-03T02:43:04.348Z,0.78
2017-01-03T02:44:04.440Z,0.74
2017-01-03T02:45:04.341Z,0.75
2017-01-03T02:46:04.372Z,0.76
2017-01-03T02:47:04.419Z,0.71
2017-01-03T02:48:04.418Z,0.74
2017-01-03T02:49:04.409Z,0.74
2017-01-03T02:50:04.416Z,0.71
2017-01-03T02:51:04.386Z,0.81
2017-01-03T02:52:04.391Z,0.78
2017-01-03T02:53:04.424Z,0.63
2017-01-03T02:54:04.432Z,0.81
2017-01-03T02:55:04.314Z,0.75
2017-01-03T02:56:04.389Z,0.74
2017-01-03T02:57:04.463Z,0.75
2017-01-03T02:58:04.378Z,0.78
2017-01-03T02:59:04.383Z,0.79
2017-01-03T03:00:04.371Z,0.79
2017-01-03T03:01:04.453Z,0.75
2017-01-03T03:02:04.345Z,0.82
2017-01-03T03:03:04.519Z,0.78
2017-01-03T03:04:04.392Z,0.92
2017-01-03T03:05:04.389Z,0.74
2017-01-03T03:06:04.412Z,0.74
2017-01-03T03:07:04.393Z,0.75
2017-01-03T03:08:04.491Z,0.89
2017-01-03T03:09:04.404Z,0.89
2017-01-03T03:10:04.482Z,0.99
2017-01-03T03:11:04.500Z,0.84
2017-01-03T03:12:04.495Z,1.02
2017-01-03T03:13:04.374Z,0.93
2017-01-03T03:14:04.373Z,0.93
2017-01-03T03:15:04.453Z,0.9
2017-01-03T03:16:04.432Z,0.85
2017-01-03T03:17:04.455Z,0.92
2017-01-03T03:18:04.453Z,0.97
2017-01-03T03:19:04.510Z,1.04
2017-01-03T03:20:04.572Z,0.99
2017-01-03T03:21:04.448Z,1
2017-01-03T03:22:04.393Z,0.97
2017-01-03T03:23:04.398Z,1.17
2017-01-03T03:24:04.421Z,1.02
2017-01-03T03:25:04.399Z,1.17
2017-01-03T03:26:04.400Z,1.14
2017-01-03T03:27:04.479Z,1.12
2017-01-03T03:28:04.405Z,1.07
2017-01-03T03:29:04.522Z,1.1
2017-01-03T03:30:04.546Z,1.08
2017-01-03T03:31:04.458Z,1.17
2017-01-03T03:32:04.477Z,1.12
2017-01-03T03:33:04.412Z,1.18
2017-01-03T03:34:04.554Z,1.2
2017-01-03T03:35:04.562Z,1.2
2017-01-03T03:36:04.539Z,1.21
2017-01-03T03:37:04.502Z,1.24
2017-01-03T03:38:04.539Z,1.26
2017-01-03T03:39:04.497Z,1.2
2017-01-03T03:40:04.521Z,1.22
2017-01-03T03:41:04.556Z,1.17
2017-01-03T03:42:04.442Z,1.18
2017-01-03T03:43:04.601Z,1.22
2017-01-03T03:44:04.469Z,1.28
2017-01-03T03:45:04.569Z,1.24
2017-01-03T03:46:04.514Z,1.29
2017-01-03T03:47:04.519Z,1.29
2017-01-03T03:48:04.570Z,1.3
2017-01-03T03:49:04.521Z,1.3
2017-01-03T03:50:04.470Z,1.4
2017-01-03T03:51:04.624Z,1.38
2017-01-03T03:52:04.554Z,1.24
2017-01-03T03:53:04.484Z,1.3
2017-01-03T03:54:04.537Z,1.33
2017-01-03T03:55:04.611Z,1.35
2017-01-03T03:56:04.505Z,1.33
2017-01-03T03:57:04.613Z,1.4
2017-01-03T03:58:04.533Z,1.36
2017-01-03T03:59:04.588Z,1.39
2017-01-03T04:00:04.600Z,1.42
2017-01-03T04:01:04.554Z,1.42
2017-01-03T04:02:04.609Z,1.44
2017-01-03T04:03:04.508Z,1.48
2017-01-03T04:04:04.621Z,1.44
2017-01-03T04:05:04.565Z,1.51
2017-01-03T04:06:04.609Z,1.53
2017-01-03T04:07:04.637Z,1.5
2017-01-03T04:08:04.586Z,1.51
2017-01-03T04:09:04.573Z,1.57
2017-01-03T04:10:04.637Z,1.48
2017-01-03T04:11:04.524Z,1.51
2017-01-03T04:12:04.540Z,1.53
2017-01-03T04:13:04.592Z,1.53
2017-01-03T04:14:04.686Z,1.58
2017-01-03T04:15:04.592Z,1.56
2017-01-03T04:16:04.601Z,1.71
2017-01-03T04:17:04.541Z,1.64
2017-01-03T04:18:04.601Z,1.76
2017-01-03T04:19:04.608Z,1.68
2017-01-03T04:20:04.551Z,1.68
2017-01-03T04:21:04.616Z,1.65
2017-01-03T04:22:04.559Z,1.69
2017-01-03T04:23:04.693Z,1.71
2017-01-03T04:24:04.563Z,1.79
2017-01-03T04:25:04.562Z,1.72
2017-01-03T04:26:04.690Z,1.74
2017-01-03T04:27:04.688Z,1.75
2017-01-03T04:28:04.640Z,1.71
2017-01-03T04:29:04.579Z,1.9
2017-01-03T04:30:04.696Z,1.82
2017-01-03T04:31:04.657Z,1.82
2017-01-03T04:32:04.650Z,1.79
2017-01-03T04:33:04.655Z,1.78
2017-01-03T04:34:04.746Z,1.75
2017-01-03T04:35:04.654Z,1.83
2017-01-03T04:36:04.645Z,1.83
2017-01-03T04:37:04.605Z,1.92
2017-01-03T04:38:04.718Z,1.93
2017-01-03T04:39:04.795Z,1.87
2017-01-03T04:40:04.698Z,1.82
2017-01-03T04:41:04.656Z,1.83
2017-01-03T04:42:04.682Z,1.79
2017-01-03T04:43:04.623Z,1.98
2017-01-03T04:44:04.680Z,1.89
2017-01-03T04:45:04.732Z,1.79
2017-01-03T04:46:04.712Z,1.84
2017-01-03T04:47:04.622Z,1.87
2017-01-03T04:48:04.633Z,1.84
2017-01-03T04:49:04.693Z,1.92
2017-01-03T04:50:04.678Z,1.89
2017-01-03T04:51:04.632Z,1.87
2017-01-03T04:52:04.700Z,1.84
2017-01-03T04:53:04.714Z,1.9
2017-01-03T04:54:04.715Z,1.94
2017-01-03T04:55:04.796Z,1.84
2017-01-03T04:56:04.653Z,1.89
2017-01-03T04:57:04.702Z,1.97
2017-01-03T04:58:04.647Z,1.98
2017-01-03T04:59:04.684Z,1.6
2017-01-03T05:00:04.685Z,2.05
2017-01-03T05:01:04.790Z,1.97
2017-01-03T05:02:04.676Z,1.94
2017-01-03T05:03:04.664Z,2.06
2017-01-03T05:04:04.673Z,2.06
2017-01-03T05:05:04.744Z,2.05
2017-01-03T05:06:04.804Z,1.98
2017-01-03T05:07:04.686Z,2.05
2017-01-03T05:08:04.696Z,2.06
2017-01-03T05:09:04.701Z,2.12
2017-01-03T05:10:04.746Z,2.09
2017-01-03T05:11:04.824Z,2.12
2017-01-03T05:12:04.820Z,2.18
2017-01-03T05:13:04.701Z,2.11
2017-01-03T05:14:04.762Z,2.16
2017-01-03T05:15:04.769Z,2.22
2017-01-03T05:16:04.749Z,2.27
2017-01-03T05:17:04.758Z,2.16
2017-01-03T05:18:04.707Z,2.2
2017-01-03T05:19:04.767Z,2.2
2017-01-03T05:20:04.776Z,2.09
2017-01-03T05:21:04.729Z,2.26
2017-01-03T05:22:04.788Z,2.26
2017-01-03T05:23:04.717Z,2.36
2017-01-03T05:24:04.795Z,2.26
2017-01-03T05:25:04.835Z,2.24
2017-01-03T05:26:04.844Z,2.29
2017-01-03T05:27:04.945Z,2.34
2017-01-03T05:28:04.840Z,2.34
2017-01-03T05:29:04.818Z,2.34
2017-01-03T05:30:04.851Z,2.36
2017-01-03T05:31:04.791Z,2.31
2017-01-03T05:32:04.830Z,2.29
2017-01-03T05:33:04.889Z,2.38
2017-01-03T05:34:04.746Z,2.38
2017-01-03T05:35:04.771Z,2.34
2017-01-03T05:36:04.832Z,2.29
2017-01-03T05:37:04.878Z,2.34
2017-01-03T05:38:04.797Z,2.4
2017-01-03T05:39:04.919Z,2.29
2017-01-03T05:40:04.881Z,2.41
2017-01-03T05:41:04.781Z,2.41
2017-01-03T05:42:04.888Z,2.42
2017-01-03T05:43:04.941Z,2.38
2017-01-03T05:44:04.832Z,2.34
2017-01-03T05:45:04.769Z,2.36
2017-01-03T05:46:04.902Z,2.41
2017-01-03T05:47:04.833Z,2.42
2017-01-03T05:48:04.929Z,2.45
2017-01-03T05:49:04.892Z,2.45
2017-01-03T05:50:04.849Z,2.45
2017-01-03T05:51:04.793Z,2.49
2017-01-03T05:52:04.918Z,2.48
2017-01-03T05:53:04.808Z,2.41
2017-01-03T05:54:04.934Z,2.49
2017-01-03T05:55:04.921Z,2.42
2017-01-03T05:56:04.859Z,2.41
2017-01-03T05:57:04.811Z,2.42
2017-01-03T05:58:04.871Z,2.48
2017-01-03T05:59:04.869Z,2.49
2017-01-03T06:00:04.829Z,2.55
2017-01-03T06:01:04.898Z,2.55
2017-01-03T06:02:04.872Z,2.62
2017-01-03T06:03:04.930Z,2.59
2017-01-03T06:04:04.905Z,2.49
2017-01-03T06:05:04.921Z,2.51
2017-01-03T06:06:05.019Z,2.54
2017-01-03T06:07:04.899Z,2.58
2017-01-03T06:08:04.847Z,2.63
2017-01-03T06:09:04.907Z,2.6
2017-01-03T06:10:05.020Z,2.67
2017-01-03T06:11:04.941Z,2.66
2017-01-03T06:12:04.903Z,2.6
2017-01-03T06:13:04.928Z,2.58
2017-01-03T06:14:04.863Z,2.66
2017-01-03T06:15:05.019Z,2.69
2017-01-03T06:16:04.864Z,2.7
2017-01-03T06:17:04.877Z,2.66
2017-01-03T06:18:04.863Z,2.67
2017-01-03T06:19:04.973Z,2.78
2017-01-03T06:20:05.001Z,2.69
2017-01-03T06:21:04.988Z,2.76
2017-01-03T06:22:04.944Z,2.72
2017-01-03T06:23:04.946Z,2.66
2017-01-03T06:24:04.968Z,2.63
2017-01-03T06:25:04.945Z,2.65
2017-01-03T06:26:04.956Z,2.67
2017-01-03T06:27:04.959Z,2.55
2017-01-03T06:28:04.957Z,2.65
2017-01-03T06:29:04.939Z,2.7
2017-01-03T06:30:04.897Z,2.67
2017-01-03T06:31:05.208Z,2.76
2017-01-03T06:32:05.001Z,2.72
2017-01-03T06:33:04.969Z,2.77
2017-01-03T06:34:04.971Z,2.76
2017-01-03T06:35:04.977Z,2.7
2017-01-03T06:36:05.039Z,2.76
2017-01-03T06:37:05.039Z,2.77
2017-01-03T06:38:04.960Z,2.67
2017-01-03T06:39:05.057Z,2.72
2017-01-03T06:40:05.037Z,2.7
2017-01-03T06:41:04.998Z,2.76
2017-01-03T06:42:05.043Z,2.72
2017-01-03T06:43:05.064Z,2.69
2017-01-03T06:44:05.005Z,2.65
2017-01-03T06:45:04.990Z,2.69
2017-01-03T06:46:05.027Z,2.69
2017-01-03T06:47:05.056Z,2.7
2017-01-03T06:48:05.013Z,2.73
2017-01-03T06:49:05.001Z,2.73
2017-01-03T06:50:05.016Z,2.7
2017-01-03T06:51:05.028Z,2.72
2017-01-03T06:52:05.092Z,2.76
2017-01-03T06:53:05.017Z,2.81
2017-01-03T06:54:05.024Z,2.7
2017-01-03T06:55:05.075Z,2.72
2017-01-03T06:56:05.109Z,2.83
2017-01-03T06:57:05.153Z,2.83
2017-01-03T06:58:05.098Z,2.78
2017-01-03T06:59:05.060Z,2.78
2017-01-03T07:00:04.984Z,2.8
2017-01-03T07:01:05.047Z,2.76
2017-01-03T07:02:05.062Z,2.77
2017-01-03T07:03:05.150Z,2.73
2017-01-03T07:04:05.056Z,2.85
2017-01-03T07:05:04.998Z,2.83
2017-01-03T07:06:05.194Z,2.85
2017-01-03T07:07:05.058Z,2.78
2017-01-03T07:08:05.179Z,2.88
2017-01-03T07:09:05.012Z,2.87
2017-01-03T07:10:05.067Z,2.83
2017-01-03T07:11:05.132Z,2.85
2017-01-03T07:12:05.068Z,2.88
2017-01-03T07:13:05.124Z,2.95
2017-01-03T07:14:05.169Z,2.88
2017-01-03T07:15:05.079Z,2.93
2017-01-03T07:16:05.154Z,2.88
2017-01-03T07:17:05.089Z,2.9
2017-01-03T07:18:05.035Z,2.9
2017-01-03T07:19:05.197Z,2.95
2017-01-03T07:20:05.094Z,2.87
2017-01-03T07:21:05.176Z,2.87
2017-01-03T07:22:05.097Z,2.99
2017-01-03T07:23:05.164Z,2.93
2017-01-03T07:24:05.171Z,2.9
2017-01-03T07:25:05.046Z,2.9
2017-01-03T07:26:05.064Z,2.95
2017-01-03T07:27:05.135Z,2.99
2017-01-03T07:28:05.114Z,2.96
2017-01-03T07:29:05.277Z,2.98
2017-01-03T07:30:05.118Z,3.03
2017-01-03T07:31:05.073Z,2.99
2017-01-03T07:32:05.125Z,3.08
2017-01-03T07:33:05.126Z,3.11
2017-01-03T07:34:05.198Z,3.05
2017-01-03T07:35:05.355Z,3.05
2017-01-03T07:36:05.141Z,3.02
2017-01-03T07:37:05.238Z,3.13
2017-01-03T07:38:05.230Z,3.09
2017-01-03T07:39:05.222Z,2.98
2017-01-03T07:40:05.165Z,3.06
2017-01-03T07:41:05.148Z,2.99
2017-01-03T07:42:05.216Z,2.96
2017-01-03T07:43:05.226Z,3.11
2017-01-03T07:44:05.251Z,3.09
2017-01-03T07:45:05.179Z,3.14
2017-01-03T07:46:05.310Z,3.17
2017-01-03T07:47:05.148Z,3.16
2017-01-03T07:48:05.128Z,3.14
2017-01-03T07:49:05.262Z,3.21
2017-01-03T07:50:05.180Z,3.11
2017-01-03T07:51:05.220Z,3.09
2017-01-03T07:52:05.188Z,3.13
2017-01-03T07:53:05.239Z,3.08
2017-01-03T07:54:05.151Z,3.2
2017-01-03T07:55:05.166Z,3.08
2017-01-03T07:56:05.164Z,3.09
2017-01-03T07:57:05.193Z,3.19
2017-01-03T07:58:05.143Z,3.29
2017-01-03T07:59:05.237Z,3.16
2017-01-03T08:00:05.270Z,3.3
2017-01-03T08:01:05.262Z,3.26
2017-01-03T08:02:05.199Z,3.21
2017-01-03T08:03:05.211Z,3.27
2017-01-03T08:04:05.227Z,3.26
2017-01-03T08:05:05.235Z,3.19
2017-01-03T08:06:05.277Z,3.81
2017-01-03T08:07:05.374Z,3.26
2017-01-03T08:08:05.221Z,3.32
2017-01-03T08:09:05.274Z,3.27
2017-01-03T08:10:05.265Z,3.24
2017-01-03T08:11:05.225Z,3.34
2017-01-03T08:12:05.295Z,3.32
2017-01-03T08:13:05.397Z,3.21
2017-01-03T08:14:05.270Z,3.4
2017-01-03T08:15:05.449Z,3.2
2017-01-03T08:16:05.272Z,3.37
2017-01-03T08:17:05.356Z,3.17
2017-01-03T08:18:05.292Z,3.29
2017-01-03T08:19:05.215Z,3.23
2017-01-03T08:20:05.322Z,3.39
2017-01-03T08:21:05.267Z,3.23
2017-01-03T08:22:05.228Z,3.35
2017-01-03T08:23:05.496Z,3.27
2017-01-03T08:24:05.285Z,3.26
2017-01-03T08:25:05.276Z,3.3
2017-01-03T08:26:05.344Z,3.3
2017-01-03T08:27:05.283Z,3.26
2017-01-03T08:28:05.315Z,3.32
2017-01-03T08:29:05.350Z,3.26
2017-01-03T08:30:05.289Z,3.37
2017-01-03T08:31:05.224Z,3.3
2017-01-03T08:32:05.298Z,3.35
2017-01-03T08:33:05.243Z,3.34
2017-01-03T08:34:05.323Z,3.42
2017-01-03T08:35:05.330Z,3.39
2017-01-03T08:36:05.377Z,3.14
2017-01-03T08:37:05.304Z,3.4
2017-01-03T08:38:05.335Z,3.4
2017-01-03T08:39:05.439Z,3.43
2017-01-03T08:40:05.388Z,3.32
2017-01-03T08:41:05.268Z,3.3
2017-01-03T08:42:05.490Z,3.32
2017-01-03T08:43:05.404Z,3.3
2017-01-03T08:44:05.408Z,3.42
2017-01-03T08:45:05.390Z,3.39
2017-01-03T08:46:05.436Z,3.51
2017-01-03T08:47:05.469Z,3.39
2017-01-03T08:48:05.347Z,3.43
2017-01-03T08:49:05.382Z,3.42
2017-01-03T08:50:05.921Z,3.37
2017-01-03T08:51:05.345Z,3.42
2017-01-03T08:52:05.375Z,3.45
2017-01-03T08:53:05.324Z,3.35
2017-01-03T08:54:05.415Z,3.32
2017-01-03T08:55:05.515Z,3.39
2017-01-03T08:56:05.354Z,3.43
2017-01-03T08:57:05.412Z,3.46
2017-01-03T08:58:05.410Z,3.46
2017-01-03T08:59:05.360Z,3.45
2017-01-03T09:00:05.407Z,3.49
2017-01-03T09:01:05.366Z,3.43
2017-01-03T09:02:05.481Z,3.45
2017-01-03T09:03:05.429Z,3.48
2017-01-03T09:04:05.370Z,3.45
2017-01-03T09:05:05.442Z,3.45
2017-01-03T09:06:05.450Z,3.42
2017-01-03T09:07:05.337Z,3.37
2017-01-03T09:08:05.344Z,3.39
2017-01-03T09:09:05.434Z,3.42
2017-01-03T09:10:05.571Z,3.43
2017-01-03T09:11:05.743Z,3.45
2017-01-03T09:12:05.357Z,3.4
2017-01-03T09:13:05.439Z,3.39
2017-01-03T09:14:05.356Z,3.53
2017-01-03T09:15:05.454Z,3.37
2017-01-03T09:16:05.531Z,3.46
2017-01-03T09:17:05.473Z,3.45
2017-01-03T09:18:05.440Z,3.45
2017-01-03T09:19:05.491Z,3.45
2017-01-03T09:20:05.426Z,3.45
2017-01-03T09:21:05.494Z,3.49
2017-01-03T09:22:05.487Z,3.45
2017-01-03T09:23:05.423Z,3.45
2017-01-03T09:24:05.553Z,3.54
2017-01-03T09:25:05.387Z,3.35
2017-01-03T09:26:05.524Z,3.42
2017-01-03T09:27:05.583Z,3.4
2017-01-03T09:28:05.436Z,3.43
2017-01-03T09:29:05.444Z,3.4
2017-01-03T09:30:05.510Z,3.42
2017-01-03T09:31:05.442Z,3.45
2017-01-03T09:32:05.417Z,3.35
2017-01-03T09:33:05.519Z,3.46
2017-01-03T09:34:05.405Z,3.42
2017-01-03T09:35:05.513Z,3.45
2017-01-03T09:36:05.456Z,3.34
2017-01-03T09:37:05.712Z,3.39
2017-01-03T09:38:05.413Z,3.45
2017-01-03T09:39:05.417Z,3.34
2017-01-03T09:40:05.528Z,3.43
2017-01-03T09:41:05.479Z,3.46
2017-01-03T09:42:05.562Z,3.4
2017-01-03T09:43:05.528Z,3.32
2017-01-03T09:44:05.475Z,3.42
2017-01-03T09:45:05.517Z,3.46
2017-01-03T09:46:05.530Z,3.43
2017-01-03T09:47:05.466Z,3.42
2017-01-03T09:48:05.564Z,3.35
2017-01-03T09:49:05.491Z,3.34
2017-01-03T09:50:05.443Z,3.34
2017-01-03T09:51:05.493Z,3.49
2017-01-03T09:52:05.503Z,3.42
2017-01-03T09:53:05.521Z,3.43
2017-01-03T09:54:05.566Z,3.53
2017-01-03T09:55:05.453Z,3.43
2017-01-03T09:56:05.574Z,3.37
2017-01-03T09:57:05.555Z,3.39
2017-01-03T09:58:05.588Z,3.42
2017-01-03T09:59:05.520Z,3.49
2017-01-03T10:00:05.661Z,3.43
2017-01-03T10:01:05.628Z,3.48
2017-01-03T10:02:05.584Z,3.53
2017-01-03T10:03:05.632Z,3.58
2017-01-03T10:04:05.641Z,3.48
2017-01-03T10:05:05.571Z,3.51
2017-01-03T10:06:05.711Z,3.54
2017-01-03T10:07:05.626Z,3.6
2017-01-03T10:08:05.550Z,3.58
2017-01-03T10:09:05.615Z,3.56
2017-01-03T10:10:05.641Z,3.51
2017-01-03T10:11:05.617Z,3.6
2017-01-03T10:12:05.598Z,3.63
2017-01-03T10:13:05.668Z,3.58
2017-01-03T10:14:05.677Z,3.66
2017-01-03T10:15:05.863Z,3.6
2017-01-03T10:16:05.629Z,3.61
2017-01-03T10:17:05.723Z,3.58
2017-01-03T10:18:05.665Z,3.63
2017-01-03T10:19:05.559Z,3.64
2017-01-03T10:20:05.617Z,3.63
2017-01-03T10:21:05.656Z,3.69
2017-01-03T10:22:05.781Z,3.56
2017-01-03T10:23:05.651Z,3.63
2017-01-03T10:24:05.654Z,3.6
2017-01-03T10:25:05.630Z,3.54
2017-01-03T10:26:05.595Z,3.63
2017-01-03T10:27:05.595Z,3.58
2017-01-03T10:28:05.556Z,3.56
2017-01-03T10:29:05.828Z,3.66
2017-01-03T10:30:05.739Z,3.63
2017-01-03T10:31:06.053Z,3.6
2017-01-03T10:32:05.611Z,3.64
2017-01-03T10:33:05.600Z,3.46
2017-01-03T10:34:05.629Z,3.56
2017-01-03T10:35:05.756Z,3.49
2017-01-03T10:36:05.654Z,3.54
2017-01-03T10:37:05.747Z,3.46
2017-01-03T10:38:05.580Z,3.53
2017-01-03T10:39:05.639Z,3.57
2017-01-03T10:40:05.634Z,3.56
2017-01-03T10:41:05.613Z,3.56
2017-01-03T10:42:05.652Z,3.51
2017-01-03T10:43:05.601Z,3.53
2017-01-03T10:44:05.744Z,3.57
2017-01-03T10:45:05.875Z,3.57
2017-01-03T10:46:05.686Z,3.61
2017-01-03T10:47:05.782Z,3.58
2017-01-03T10:48:05.717Z,3.54
2017-01-03T10:49:05.782Z,3.57
2017-01-03T10:50:05.604Z,3.6
2017-01-03T10:51:05.714Z,3.56
2017-01-03T10:52:05.732Z,3.64
2017-01-03T10:53:05.614Z,3.67
2017-01-03T10:54:05.766Z,3.64
2017-01-03T10:55:05.819Z,3.58
2017-01-03T10:56:05.677Z,3.66
2017-01-03T10:57:05.758Z,3.72
2017-01-03T10:58:05.718Z,3.66
2017-01-03T10:59:05.676Z,3.63
2017-01-03T11:00:05.659Z,3.72
2017-01-03T11:01:05.689Z,3.67
2017-01-03T11:02:05.744Z,3.72
2017-01-03T11:03:05.788Z,3.76
2017-01-03T11:04:05.783Z,3.71
2017-01-03T11:05:05.632Z,3.72
2017-01-03T11:06:05.725Z,3.79
2017-01-03T11:07:05.702Z,3.69
2017-01-03T11:08:05.913Z,3.76
2017-01-03T11:09:05.676Z,3.78
2017-01-03T11:10:05.755Z,3.75
2017-01-03T11:11:05.791Z,3.75
2017-01-03T11:12:05.801Z,3.74
2017-01-03T11:13:05.737Z,3.79
2017-01-03T11:14:05.730Z,3.69
2017-01-03T11:15:05.752Z,3.76
2017-01-03T11:16:05.691Z,3.75
2017-01-03T11:17:05.800Z,3.72
2017-01-03T11:18:05.763Z,3.72
2017-01-03T11:19:05.960Z,3.64
2017-01-03T11:20:05.860Z,3.69
2017-01-03T11:21:05.804Z,3.6
2017-01-03T11:22:05.699Z,3.61
2017-01-03T11:23:05.790Z,3.56
2017-01-03T11:24:05.883Z,3.71
2017-01-03T11:25:05.794Z,3.69
2017-01-03T11:26:05.956Z,3.75
2017-01-03T11:27:05.866Z,3.76
2017-01-03T11:28:05.770Z,3.69
2017-01-03T11:29:05.838Z,3.75
2017-01-03T11:30:05.904Z,3.81
2017-01-03T11:31:05.784Z,3.74
2017-01-03T11:32:05.778Z,3.71
2017-01-03T11:33:05.849Z,3.82
2017-01-03T11:34:05.854Z,3.86
2017-01-03T11:35:06.183Z,3.89
2017-01-03T11:36:05.802Z,3.86
2017-01-03T11:37:05.738Z,3.86
2017-01-03T11:38:05.821Z,3.86
2017-01-03T11:39:05.845Z,3.97
2017-01-03T11:40:05.828Z,3.97
2017-01-03T11:41:05.856Z,4.07
2017-01-03T11:42:05.885Z,3.86
2017-01-03T11:43:05.864Z,4
2017-01-03T11:44:05.769Z,4
2017-01-03T11:45:05.836Z,4.1
2017-01-03T11:46:05.822Z,4.1
2017-01-03T11:47:05.864Z,4.12
2017-01-03T11:48:05.826Z,4.02
2017-01-03T11:49:05.780Z,4
2017-01-03T11:50:05.954Z,4.07
2017-01-03T11:51:05.914Z,3.97
2017-01-03T11:52:05.809Z,3.99
2017-01-03T11:53:05.845Z,3.96
2017-01-03T11:54:05.781Z,3.92
2017-01-03T11:55:05.843Z,3.93
2017-01-03T11:56:05.819Z,3.96
2017-01-03T11:57:05.860Z,4
2017-01-03T11:58:05.926Z,3.82
2017-01-03T11:59:05.849Z,3.93
2017-01-03T12:00:05.930Z,3.93
2017-01-03T12:01:05.896Z,4.04
2017-01-03T12:02:05.953Z,3.9
2017-01-03T12:03:05.884Z,3.94
2017-01-03T12:04:05.890Z,4.03
2017-01-03T12:05:05.907Z,3.99
2017-01-03T12:06:05.917Z,4
2017-01-03T12:07:06.048Z,3.93
2017-01-03T12:08:05.909Z,3.94
2017-01-03T12:09:05.892Z,3.99
2017-01-03T12:10:05.908Z,3.93
2017-01-03T12:11:05.917Z,4.04
2017-01-03T12:12:05.925Z,3.96
2017-01-03T12:13:05.908Z,4.03
2017-01-03T12:14:05.972Z,4
2017-01-03T12:15:05.920Z,3.9
2017-01-03T12:16:05.916Z,3.92
2017-01-03T12:17:05.928Z,3.94
2017-01-03T12:18:05.905Z,3.81
2017-01-03T12:19:05.900Z,3.85
2017-01-03T12:20:05.920Z,3.89
2017-01-03T12:21:05.920Z,3.85
2017-01-03T12:22:06.071Z,3.89
2017-01-03T12:23:06.212Z,3.97
2017-01-03T12:24:05.932Z,3.82
2017-01-03T12:25:05.958Z,3.86
2017-01-03T12:26:05.945Z,3.82
2017-01-03T12:27:06.011Z,3.89
2017-01-03T12:28:06.023Z,3.85
2017-01-03T12:29:06.018Z,3.82
2017-01-03T12:30:06.134Z,3.78
2017-01-03T12:31:05.940Z,3.86
2017-01-03T12:32:06.001Z,3.69
2017-01-03T12:33:05.922Z,3.76
2017-01-03T12:34:05.915Z,3.81
2017-01-03T12:35:05.956Z,3.79
2017-01-03T12:36:05.898Z,3.79
2017-01-03T12:37:06.098Z,3.84
2017-01-03T12:38:06.019Z,3.78
2017-01-03T12:39:06.255Z,3.78
2017-01-03T12:40:06.003Z,3.71
2017-01-03T12:41:06.893Z,3.81
2017-01-03T12:42:05.974Z,3.85
2017-01-03T12:43:06.041Z,3.82
2017-01-03T12:44:06.006Z,3.75
2017-01-03T12:45:06.045Z,3.81
2017-01-03T12:46:06.032Z,3.81
2017-01-03T12:47:06.006Z,3.85
2017-01-03T12:48:06.073Z,3.78
2017-01-03T12:49:05.972Z,3.79
2017-01-03T12:50:06.062Z,3.74
2017-01-03T12:51:06.004Z,3.71
2017-01-03T12:52:05.994Z,3.9
2017-01-03T12:53:06.161Z,3.85
2017-01-03T12:54:06.109Z,3.85
2017-01-03T12:55:06.311Z,3.89
2017-01-03T12:56:06.140Z,3.94
2017-01-03T12:57:05.966Z,3.85
2017-01-03T12:58:06.146Z,3.96
2017-01-03T12:59:06.064Z,3.86
2017-01-03T13:00:06.118Z,3.9
2017-01-03T13:01:06.089Z,3.86
2017-01-03T13:02:05.970Z,3.94
2017-01-03T13:03:06.061Z,3.97
2017-01-03T13:04:06.064Z,3.82
2017-01-03T13:05:07.051Z,3.89
2017-01-03T13:06:06.061Z,3.89
2017-01-03T13:07:06.068Z,3.97
2017-01-03T13:08:06.083Z,3.96
2017-01-03T13:09:06.013Z,3.93
2017-01-03T13:10:06.235Z,3.89
2017-01-03T13:11:06.083Z,4.02
2017-01-03T13:12:06.140Z,3.96
2017-01-03T13:13:05.993Z,3.92
2017-01-03T13:14:06.605Z,3.9
2017-01-03T13:15:06.736Z,3.96
2017-01-03T13:16:07.856Z,3.94
2017-01-03T13:17:06.092Z,3.93
2017-01-03T13:18:06.188Z,3.93
2017-01-03T13:19:06.159Z,3.82
2017-01-03T13:20:06.087Z,3.92
2017-01-03T13:21:06.095Z,3.9